Sonny C — WDJ7538 — position and weather

sailwx.info

Track history (hours):
 
Tides and Currents Weather Stations Pressure Air Temp Water Temp Dewpoint Dewpoint Depression Visibility Wind Speed Wind Dir Waves Ship Positions

Sonny C

Owner: Dean Equipment Inc, Harvey, LA. More information available from US FCC via Universal Licensing System and Coast Guard Vessel Documentation Center.

Last reported at 2018-Jan-20 20:31 UTC. Time now 2018-Feb-17 19:16 UTC.
Position N 29°33' W 090°25'.
Warning: this ship's position is 27 days out of date.

Length 20 m; draft 1.4 m.

Type: Tug. MMSI: 368007720.

Date/timePositionNaut miles runAvg speedWind from/ knotsBaromVisibWave heightAir tempDewpointWater temp
2018-Jan-20 20:31N 29°33' W 090°25'0 5.4
2018-Jan-20 20:30N 29°33' W 090°25'3 5.4
2018-Jan-20 19:55N 29°34' W 090°28'2 5.4
2018-Jan-20 19:30N 29°34' W 090°31'3 5.3
2018-Jan-20 19:00N 29°34' W 090°34'3 5.1
2018-Jan-20 18:30N 29°35' W 090°37'3 5.4
2018-Jan-20 18:00N 29°36' W 090°39'3 5.3
2018-Jan-20 17:30N 29°37' W 090°42'3 5.7
2018-Jan-20 17:00N 29°34' W 090°43'3 5.3
2018-Jan-20 16:30N 29°32' W 090°46'3 5.7
2018-Jan-20 15:59N 29°32' W 090°49'3 5.7
2018-Jan-20 15:28N 29°32' W 090°53'3 5.9
2018-Jan-20 14:56N 29°34' W 090°56'4 0.3
2018-Jan-20 02:36N 29°37' W 090°59'1 5.8
2018-Jan-20 02:22N 29°36' W 090°58'2 5.9
2018-Jan-20 01:58N 29°34' W 090°56'3 6.2
2018-Jan-20 01:30N 29°33' W 090°53'3 5.9
2018-Jan-20 00:59N 29°32' W 090°50'3 6.0
2018-Jan-20 00:30N 29°32' W 090°46'3 5.5
2018-Jan-20 00:00N 29°34' W 090°44'3 5.3
2018-Jan-19 23:30N 29°36' W 090°43'3 5.1
2018-Jan-19 23:00N 29°36' W 090°40'3 6.1
2018-Jan-19 22:30N 29°35' W 090°36'  
Track history (hours):
 
Tides and Currents Weather Stations Pressure Air Temp Water Temp Dewpoint Dewpoint Depression Visibility Wind Speed Wind Dir Waves Ship Positions

Sonny C

Owner: Dean Equipment Inc, Harvey, LA. More information available from US FCC via Universal Licensing System and Coast Guard Vessel Documentation Center.

Last reported at 2018-Jan-20 20:31 UTC. Time now 2018-Feb-17 19:16 UTC.
Position N 29°33' W 090°25'.
Warning: this ship's position is 27 days out of date.

Length 20 m; draft 1.4 m.

Type: Tug. MMSI: 368007720.

Date/timePositionNaut miles runAvg speedWind from/ knotsBaromVisibWave heightAir tempDewpointWater temp
2018-Jan-20 20:31N 29°33' W 090°25'0 5.4
2018-Jan-20 20:30N 29°33' W 090°25'3 5.4
2018-Jan-20 19:55N 29°34' W 090°28'2 5.4
2018-Jan-20 19:30N 29°34' W 090°31'3 5.3
2018-Jan-20 19:00N 29°34' W 090°34'3 5.1
2018-Jan-20 18:30N 29°35' W 090°37'3 5.4
2018-Jan-20 18:00N 29°36' W 090°39'3 5.3
2018-Jan-20 17:30N 29°37' W 090°42'3 5.7
2018-Jan-20 17:00N 29°34' W 090°43'3 5.3
2018-Jan-20 16:30N 29°32' W 090°46'3 5.7
2018-Jan-20 15:59N 29°32' W 090°49'3 5.7
2018-Jan-20 15:28N 29°32' W 090°53'3 5.9
2018-Jan-20 14:56N 29°34' W 090°56'4 0.3
2018-Jan-20 02:36N 29°37' W 090°59'1 5.8
2018-Jan-20 02:22N 29°36' W 090°58'2 5.9
2018-Jan-20 01:58N 29°34' W 090°56'3 6.2
2018-Jan-20 01:30N 29°33' W 090°53'3 5.9
2018-Jan-20 00:59N 29°32' W 090°50'3 6.0
2018-Jan-20 00:30N 29°32' W 090°46'3 5.5
2018-Jan-20 00:00N 29°34' W 090°44'3 5.3
2018-Jan-19 23:30N 29°36' W 090°43'3 5.1
2018-Jan-19 23:00N 29°36' W 090°40'3 6.1
2018-Jan-19 22:30N 29°35' W 090°36'  

Dump ship's entire track history